sensor_id;sensor_type;location;lat;lon;timestamp;pressure;altitude;pressure_sealevel;temperature;humidity
17711;BME280;8975;57.718;12.134;2022-12-07T00:01:04;115940.22;;;-142.68;78.62
17711;BME280;8975;57.718;12.134;2022-12-07T00:03:30;115940.22;;;-142.68;78.38
17711;BME280;8975;57.718;12.134;2022-12-07T00:05:58;115940.22;;;-142.68;78.32
17711;BME280;8975;57.718;12.134;2022-12-07T00:08:24;115940.22;;;-142.68;78.75
17711;BME280;8975;57.718;12.134;2022-12-07T00:10:49;115940.22;;;-142.68;78.52
17711;BME280;8975;57.718;12.134;2022-12-07T00:13:14;115940.22;;;-142.68;78.42
17711;BME280;8975;57.718;12.134;2022-12-07T00:15:40;115940.22;;;-142.68;78.78
17711;BME280;8975;57.718;12.134;2022-12-07T00:18:05;115940.22;;;-142.68;78.36
17711;BME280;8975;57.718;12.134;2022-12-07T00:20:31;115940.22;;;-142.68;78.13
17711;BME280;8975;57.718;12.134;2022-12-07T00:22:56;115940.22;;;-142.68;78.07
17711;BME280;8975;57.718;12.134;2022-12-07T00:25:22;115940.22;;;-142.68;77.93
17711;BME280;8975;57.718;12.134;2022-12-07T00:27:47;115940.22;;;-142.68;77.44
17711;BME280;8975;57.718;12.134;2022-12-07T00:30:13;115940.22;;;-142.68;77.53
17711;BME280;8975;57.718;12.134;2022-12-07T00:32:38;115940.22;;;-142.68;77.73
17711;BME280;8975;57.718;12.134;2022-12-07T00:35:04;115940.22;;;-142.68;77.68
17711;BME280;8975;57.718;12.134;2022-12-07T00:37:29;115940.22;;;-142.68;77.88
17711;BME280;8975;57.718;12.134;2022-12-07T00:39:55;115940.22;;;-142.68;78.13
17711;BME280;8975;57.718;12.134;2022-12-07T00:42:20;115940.22;;;-142.68;78.24
17711;BME280;8975;57.718;12.134;2022-12-07T00:44:46;115940.22;;;-142.68;78.54
17711;BME280;8975;57.718;12.134;2022-12-07T00:47:11;115940.22;;;-142.68;79.15
17711;BME280;8975;57.718;12.134;2022-12-07T00:49:36;115940.22;;;-142.68;79.62
17711;BME280;8975;57.718;12.134;2022-12-07T00:52:02;115940.22;;;-142.68;78.85
17711;BME280;8975;57.718;12.134;2022-12-07T00:54:27;115940.22;;;-142.68;78.61
17711;BME280;8975;57.718;12.134;2022-12-07T00:56:53;115940.22;;;-142.68;79.07
17711;BME280;8975;57.718;12.134;2022-12-07T00:59:18;115940.22;;;-142.68;78.71
17711;BME280;8975;57.718;12.134;2022-12-07T01:01:43;115940.22;;;-142.68;78.67
17711;BME280;8975;57.718;12.134;2022-12-07T01:04:09;115940.22;;;-142.68;78.61
17711;BME280;8975;57.718;12.134;2022-12-07T01:06:34;115940.22;;;-142.68;78.43
17711;BME280;8975;57.718;12.134;2022-12-07T01:09:00;115940.22;;;-142.68;78.81
17711;BME280;8975;57.718;12.134;2022-12-07T01:11:28;115940.22;;;-142.68;78.54
17711;BME280;8975;57.718;12.134;2022-12-07T01:13:56;115940.22;;;-142.68;78.90
17711;BME280;8975;57.718;12.134;2022-12-07T01:16:24;115940.22;;;-142.68;78.56
17711;BME280;8975;57.718;12.134;2022-12-07T01:18:53;115940.22;;;-142.68;78.89
17711;BME280;8975;57.718;12.134;2022-12-07T01:21:26;115940.22;;;-142.68;78.96
17711;BME280;8975;57.718;12.134;2022-12-07T01:23:52;115940.22;;;-142.68;78.68
17711;BME280;8975;57.718;12.134;2022-12-07T01:26:23;115940.22;;;-142.68;78.86
17711;BME280;8975;57.718;12.134;2022-12-07T01:28:49;115940.22;;;-142.68;78.67
17711;BME280;8975;57.718;12.134;2022-12-07T01:31:17;115940.22;;;-142.68;78.18
17711;BME280;8975;57.718;12.134;2022-12-07T01:33:45;115940.22;;;-142.68;78.19
17711;BME280;8975;57.718;12.134;2022-12-07T01:36:20;115940.22;;;-142.68;78.83
17711;BME280;8975;57.718;12.134;2022-12-07T01:38:48;115940.22;;;-142.68;78.83
17711;BME280;8975;57.718;12.134;2022-12-07T01:41:14;115940.22;;;-142.68;79.29
17711;BME280;8975;57.718;12.134;2022-12-07T01:46:37;115940.22;;;-142.68;79.63
17711;BME280;8975;57.718;12.134;2022-12-07T01:49:08;115940.22;;;-142.68;79.53
17711;BME280;8975;57.718;12.134;2022-12-07T01:51:36;115940.22;;;-142.68;79.72
17711;BME280;8975;57.718;12.134;2022-12-07T01:54:03;115940.22;;;-142.68;79.35
17711;BME280;8975;57.718;12.134;2022-12-07T01:56:29;115940.22;;;-142.68;79.90
17711;BME280;8975;57.718;12.134;2022-12-07T01:58:57;115940.22;;;-142.68;80.44
17711;BME280;8975;57.718;12.134;2022-12-07T02:01:23;115940.22;;;-142.68;80.44
17711;BME280;8975;57.718;12.134;2022-12-07T02:03:49;115940.22;;;-142.68;80.63
17711;BME280;8975;57.718;12.134;2022-12-07T02:06:19;115940.22;;;-142.68;80.46
17711;BME280;8975;57.718;12.134;2022-12-07T02:08:46;115940.22;;;-142.68;80.91
17711;BME280;8975;57.718;12.134;2022-12-07T02:11:12;115940.22;;;-142.68;81.42
17711;BME280;8975;57.718;12.134;2022-12-07T02:13:40;115940.22;;;-142.68;81.13
17711;BME280;8975;57.718;12.134;2022-12-07T02:30:49;115940.22;;;-142.68;80.72
17711;BME280;8975;57.718;12.134;2022-12-07T02:33:27;115940.22;;;-142.68;80.24
17711;BME280;8975;57.718;12.134;2022-12-07T02:36:05;115940.22;;;-142.68;80.16
17711;BME280;8975;57.718;12.134;2022-12-07T02:38:41;115940.22;;;-142.68;80.08
17711;BME280;8975;57.718;12.134;2022-12-07T02:41:33;115940.22;;;-142.68;80.13
17711;BME280;8975;57.718;12.134;2022-12-07T02:44:00;115940.22;;;-142.68;79.81
17711;BME280;8975;57.718;12.134;2022-12-07T02:46:30;115940.22;;;-142.68;79.49
17711;BME280;8975;57.718;12.134;2022-12-07T02:48:58;115940.22;;;-142.68;80.29
17711;BME280;8975;57.718;12.134;2022-12-07T02:51:25;115940.22;;;-142.68;80.42
17711;BME280;8975;57.718;12.134;2022-12-07T02:53:50;115940.22;;;-142.68;79.72
17711;BME280;8975;57.718;12.134;2022-12-07T03:12:21;115940.22;;;-142.68;79.87
17711;BME280;8975;57.718;12.134;2022-12-07T03:14:53;115940.22;;;-142.68;80.07
17711;BME280;8975;57.718;12.134;2022-12-07T03:17:28;115940.22;;;-142.68;79.40
17711;BME280;8975;57.718;12.134;2022-12-07T03:19:59;115940.22;;;-142.68;79.50
17711;BME280;8975;57.718;12.134;2022-12-07T03:22:29;115940.22;;;-142.68;79.67
17711;BME280;8975;57.718;12.134;2022-12-07T03:25:01;115940.22;;;-142.68;79.97
17711;BME280;8975;57.718;12.134;2022-12-07T03:27:33;115940.22;;;-142.68;80.31
17711;BME280;8975;57.718;12.134;2022-12-07T03:32:37;115940.22;;;-142.68;80.39
17711;BME280;8975;57.718;12.134;2022-12-07T03:40:37;115940.22;;;-142.68;80.94
17711;BME280;8975;57.718;12.134;2022-12-07T03:43:05;115940.22;;;-142.68;80.35
17711;BME280;8975;57.718;12.134;2022-12-07T03:45:45;115940.22;;;-142.68;79.97
17711;BME280;8975;57.718;12.134;2022-12-07T03:48:26;115940.22;;;-142.68;80.75
17711;BME280;8975;57.718;12.134;2022-12-07T03:53:40;115940.22;;;-142.68;81.67
17711;BME280;8975;57.718;12.134;2022-12-07T03:56:08;115940.22;;;-142.68;81.96
17711;BME280;8975;57.718;12.134;2022-12-07T03:58:34;115940.22;;;-142.68;82.02
17711;BME280;8975;57.718;12.134;2022-12-07T04:01:00;115940.22;;;-142.68;81.40
17711;BME280;8975;57.718;12.134;2022-12-07T04:03:25;115940.22;;;-142.68;82.34
17711;BME280;8975;57.718;12.134;2022-12-07T04:05:50;115940.22;;;-142.68;81.59
17711;BME280;8975;57.718;12.134;2022-12-07T04:08:16;115940.22;;;-142.68;81.80
17711;BME280;8975;57.718;12.134;2022-12-07T04:10:41;115940.22;;;-142.68;82.07
17711;BME280;8975;57.718;12.134;2022-12-07T04:13:07;115940.22;;;-142.68;81.74
17711;BME280;8975;57.718;12.134;2022-12-07T04:15:32;115940.22;;;-142.68;81.78
17711;BME280;8975;57.718;12.134;2022-12-07T04:17:57;115940.22;;;-142.68;81.41
17711;BME280;8975;57.718;12.134;2022-12-07T04:20:23;115940.22;;;-142.68;81.77
17711;BME280;8975;57.718;12.134;2022-12-07T04:22:49;115940.22;;;-142.68;82.18
17711;BME280;8975;57.718;12.134;2022-12-07T04:25:14;115940.22;;;-142.68;82.41
17711;BME280;8975;57.718;12.134;2022-12-07T04:27:39;115940.22;;;-142.68;82.98
17711;BME280;8975;57.718;12.134;2022-12-07T04:30:05;115940.22;;;-142.68;82.28
17711;BME280;8975;57.718;12.134;2022-12-07T04:32:31;115940.22;;;-142.68;82.52
17711;BME280;8975;57.718;12.134;2022-12-07T04:34:56;115940.22;;;-142.68;82.21
17711;BME280;8975;57.718;12.134;2022-12-07T04:37:22;115940.22;;;-142.68;82.60
17711;BME280;8975;57.718;12.134;2022-12-07T04:39:48;115940.22;;;-142.68;82.64
17711;BME280;8975;57.718;12.134;2022-12-07T04:42:13;115940.22;;;-142.68;82.80
17711;BME280;8975;57.718;12.134;2022-12-07T04:44:39;115940.22;;;-142.68;84.34
17711;BME280;8975;57.718;12.134;2022-12-07T04:47:04;115940.22;;;-142.68;83.65
17711;BME280;8975;57.718;12.134;2022-12-07T04:49:30;115940.22;;;-142.68;83.46
17711;BME280;8975;57.718;12.134;2022-12-07T04:51:55;115940.22;;;-142.68;82.31
17711;BME280;8975;57.718;12.134;2022-12-07T04:54:21;115940.22;;;-142.68;82.03
17711;BME280;8975;57.718;12.134;2022-12-07T04:56:46;115940.22;;;-142.68;82.68
17711;BME280;8975;57.718;12.134;2022-12-07T04:59:13;115940.22;;;-142.68;82.14
17711;BME280;8975;57.718;12.134;2022-12-07T05:01:39;115940.22;;;-142.68;82.40
17711;BME280;8975;57.718;12.134;2022-12-07T05:04:05;115940.22;;;-142.68;82.54
17711;BME280;8975;57.718;12.134;2022-12-07T05:06:31;115940.22;;;-142.68;82.91
17711;BME280;8975;57.718;12.134;2022-12-07T05:08:57;115940.22;;;-142.68;83.22
17711;BME280;8975;57.718;12.134;2022-12-07T05:11:22;115940.22;;;-142.68;83.12
17711;BME280;8975;57.718;12.134;2022-12-07T05:14:17;115940.22;;;-142.68;82.63
17711;BME280;8975;57.718;12.134;2022-12-07T05:16:44;115940.22;;;-142.68;82.11
17711;BME280;8975;57.718;12.134;2022-12-07T05:19:10;115940.22;;;-142.68;82.90
17711;BME280;8975;57.718;12.134;2022-12-07T05:21:36;115940.22;;;-142.68;81.84
17711;BME280;8975;57.718;12.134;2022-12-07T05:24:03;115940.22;;;-142.68;82.15
17711;BME280;8975;57.718;12.134;2022-12-07T05:26:28;115940.22;;;-142.68;82.21
17711;BME280;8975;57.718;12.134;2022-12-07T05:28:55;115940.22;;;-142.68;82.40
17711;BME280;8975;57.718;12.134;2022-12-07T05:31:22;115940.22;;;-142.68;82.96
17711;BME280;8975;57.718;12.134;2022-12-07T05:33:48;115940.22;;;-142.68;82.71
17711;BME280;8975;57.718;12.134;2022-12-07T05:36:13;115940.22;;;-142.68;82.45
17711;BME280;8975;57.718;12.134;2022-12-07T05:38:39;115940.22;;;-142.68;82.32
17711;BME280;8975;57.718;12.134;2022-12-07T05:41:05;115940.22;;;-142.68;82.13
17711;BME280;8975;57.718;12.134;2022-12-07T05:43:33;115940.22;;;-142.68;82.70
17711;BME280;8975;57.718;12.134;2022-12-07T05:45:59;115940.22;;;-142.68;82.13
17711;BME280;8975;57.718;12.134;2022-12-07T05:48:25;115940.22;;;-142.68;81.48
17711;BME280;8975;57.718;12.134;2022-12-07T05:50:51;115940.22;;;-142.68;81.27
17711;BME280;8975;57.718;12.134;2022-12-07T05:53:17;115940.22;;;-142.68;82.11
17711;BME280;8975;57.718;12.134;2022-12-07T05:55:43;115940.22;;;-142.68;82.05
17711;BME280;8975;57.718;12.134;2022-12-07T05:58:08;115940.22;;;-142.68;81.78
17711;BME280;8975;57.718;12.134;2022-12-07T06:00:54;115940.22;;;-142.68;82.09
17711;BME280;8975;57.718;12.134;2022-12-07T06:03:20;115940.22;;;-142.68;81.83
17711;BME280;8975;57.718;12.134;2022-12-07T06:05:45;115940.22;;;-142.68;81.99
17711;BME280;8975;57.718;12.134;2022-12-07T06:08:11;115940.22;;;-142.68;81.37
17711;BME280;8975;57.718;12.134;2022-12-07T06:10:36;115940.22;;;-142.68;81.21
17711;BME280;8975;57.718;12.134;2022-12-07T06:13:02;115940.22;;;-142.68;80.68
17711;BME280;8975;57.718;12.134;2022-12-07T06:15:27;115940.22;;;-142.68;81.38
17711;BME280;8975;57.718;12.134;2022-12-07T06:17:52;115940.22;;;-142.68;82.22
17711;BME280;8975;57.718;12.134;2022-12-07T06:20:18;115940.22;;;-142.68;82.80
17711;BME280;8975;57.718;12.134;2022-12-07T06:22:43;115940.22;;;-142.68;81.79
17711;BME280;8975;57.718;12.134;2022-12-07T06:25:09;115940.22;;;-142.68;82.01
17711;BME280;8975;57.718;12.134;2022-12-07T06:27:35;115940.22;;;-142.68;82.09
17711;BME280;8975;57.718;12.134;2022-12-07T06:30:00;115940.22;;;-142.68;82.80
17711;BME280;8975;57.718;12.134;2022-12-07T06:32:35;115940.22;;;-142.68;82.11
17711;BME280;8975;57.718;12.134;2022-12-07T06:35:01;115940.22;;;-142.68;81.94
17711;BME280;8975;57.718;12.134;2022-12-07T06:37:27;115940.22;;;-142.68;82.56
17711;BME280;8975;57.718;12.134;2022-12-07T06:39:52;115940.22;;;-142.68;82.84
17711;BME280;8975;57.718;12.134;2022-12-07T06:42:17;115940.22;;;-142.68;82.90
17711;BME280;8975;57.718;12.134;2022-12-07T06:44:43;115940.22;;;-142.68;81.99
17711;BME280;8975;57.718;12.134;2022-12-07T06:47:08;115940.22;;;-142.68;81.76
17711;BME280;8975;57.718;12.134;2022-12-07T06:49:34;115940.22;;;-142.68;81.70
17711;BME280;8975;57.718;12.134;2022-12-07T06:52:00;115940.22;;;-142.68;81.56
17711;BME280;8975;57.718;12.134;2022-12-07T06:54:25;115940.22;;;-142.68;82.51
17711;BME280;8975;57.718;12.134;2022-12-07T06:56:51;115940.22;;;-142.68;82.67
17711;BME280;8975;57.718;12.134;2022-12-07T06:59:16;115940.22;;;-142.68;82.35
17711;BME280;8975;57.718;12.134;2022-12-07T07:01:42;115940.22;;;-142.68;82.43
17711;BME280;8975;57.718;12.134;2022-12-07T07:04:07;115940.22;;;-142.68;81.79
17711;BME280;8975;57.718;12.134;2022-12-07T07:06:32;115940.22;;;-142.68;82.13
17711;BME280;8975;57.718;12.134;2022-12-07T07:08:58;115940.22;;;-142.68;81.69
17711;BME280;8975;57.718;12.134;2022-12-07T07:11:23;115940.22;;;-142.68;81.96
17711;BME280;8975;57.718;12.134;2022-12-07T07:13:49;115940.22;;;-142.68;82.14
17711;BME280;8975;57.718;12.134;2022-12-07T07:16:14;115940.22;;;-142.68;81.64
17711;BME280;8975;57.718;12.134;2022-12-07T07:18:40;115940.22;;;-142.68;81.67
17711;BME280;8975;57.718;12.134;2022-12-07T07:21:05;115940.22;;;-142.68;81.94
17711;BME280;8975;57.718;12.134;2022-12-07T07:23:31;115940.22;;;-142.68;82.30
17711;BME280;8975;57.718;12.134;2022-12-07T07:25:56;115940.22;;;-142.68;82.48
17711;BME280;8975;57.718;12.134;2022-12-07T07:28:22;115940.22;;;-142.68;81.76
17711;BME280;8975;57.718;12.134;2022-12-07T07:30:47;115940.22;;;-142.68;82.28
17711;BME280;8975;57.718;12.134;2022-12-07T07:33:13;115940.22;;;-142.68;82.33
17711;BME280;8975;57.718;12.134;2022-12-07T07:35:39;115940.22;;;-142.68;82.08
17711;BME280;8975;57.718;12.134;2022-12-07T07:38:05;115940.22;;;-142.68;82.16
17711;BME280;8975;57.718;12.134;2022-12-07T07:40:30;115940.22;;;-142.68;82.59
17711;BME280;8975;57.718;12.134;2022-12-07T07:42:57;115940.22;;;-142.68;81.78
17711;BME280;8975;57.718;12.134;2022-12-07T07:45:23;115940.22;;;-142.68;81.77
17711;BME280;8975;57.718;12.134;2022-12-07T07:47:49;115940.22;;;-142.68;81.81
17711;BME280;8975;57.718;12.134;2022-12-07T07:50:15;115940.22;;;-142.68;82.86
17711;BME280;8975;57.718;12.134;2022-12-07T07:52:41;115940.22;;;-142.68;82.77
17711;BME280;8975;57.718;12.134;2022-12-07T07:55:07;115940.22;;;-142.68;83.43
17711;BME280;8975;57.718;12.134;2022-12-07T07:57:34;115940.22;;;-142.68;83.67
17711;BME280;8975;57.718;12.134;2022-12-07T08:00:00;115940.22;;;-142.68;83.55
17711;BME280;8975;57.718;12.134;2022-12-07T08:02:26;115940.22;;;-142.68;84.23
17711;BME280;8975;57.718;12.134;2022-12-07T08:04:54;115940.22;;;-142.68;83.17
17711;BME280;8975;57.718;12.134;2022-12-07T08:07:20;115940.22;;;-142.68;83.41
17711;BME280;8975;57.718;12.134;2022-12-07T08:09:45;115940.22;;;-142.68;82.25
17711;BME280;8975;57.718;12.134;2022-12-07T08:12:10;115940.22;;;-142.68;83.05
17711;BME280;8975;57.718;12.134;2022-12-07T08:14:36;115940.22;;;-142.68;82.11
17711;BME280;8975;57.718;12.134;2022-12-07T08:17:01;115940.22;;;-142.68;82.66
17711;BME280;8975;57.718;12.134;2022-12-07T08:19:27;115940.22;;;-142.68;82.54
17711;BME280;8975;57.718;12.134;2022-12-07T08:21:52;115940.22;;;-142.68;82.29
17711;BME280;8975;57.718;12.134;2022-12-07T08:24:18;115940.22;;;-142.68;82.18
17711;BME280;8975;57.718;12.134;2022-12-07T08:26:43;115940.22;;;-142.68;81.56
17711;BME280;8975;57.718;12.134;2022-12-07T08:29:09;115940.22;;;-142.68;80.92
17711;BME280;8975;57.718;12.134;2022-12-07T08:31:34;115940.22;;;-142.68;81.07
17711;BME280;8975;57.718;12.134;2022-12-07T08:34:00;115940.22;;;-142.68;81.86
17711;BME280;8975;57.718;12.134;2022-12-07T08:36:25;115940.22;;;-142.68;81.27
17711;BME280;8975;57.718;12.134;2022-12-07T08:38:51;115940.22;;;-142.68;81.27
17711;BME280;8975;57.718;12.134;2022-12-07T08:41:16;115940.22;;;-142.68;80.76
17711;BME280;8975;57.718;12.134;2022-12-07T08:43:42;115940.22;;;-142.68;81.42
17711;BME280;8975;57.718;12.134;2022-12-07T08:49:03;115940.22;;;-142.68;80.32
17711;BME280;8975;57.718;12.134;2022-12-07T08:51:29;115940.22;;;-142.68;80.68
17711;BME280;8975;57.718;12.134;2022-12-07T08:53:55;115940.22;;;-142.68;80.99
17711;BME280;8975;57.718;12.134;2022-12-07T08:56:22;115940.22;;;-142.68;82.37
17711;BME280;8975;57.718;12.134;2022-12-07T08:58:49;115940.22;;;-142.68;81.50
17711;BME280;8975;57.718;12.134;2022-12-07T09:01:14;115940.22;;;-142.68;82.46
17711;BME280;8975;57.718;12.134;2022-12-07T09:03:40;115940.22;;;-142.68;82.59
17711;BME280;8975;57.718;12.134;2022-12-07T09:06:06;115940.22;;;-142.68;83.25
17711;BME280;8975;57.718;12.134;2022-12-07T09:08:37;115940.22;;;-142.68;81.77
17711;BME280;8975;57.718;12.134;2022-12-07T09:11:03;115940.22;;;-142.68;81.19
17711;BME280;8975;57.718;12.134;2022-12-07T09:13:28;115940.22;;;-142.68;81.43
17711;BME280;8975;57.718;12.134;2022-12-07T09:15:54;115940.22;;;-142.68;81.19
17711;BME280;8975;57.718;12.134;2022-12-07T09:18:19;115940.22;;;-142.68;80.66
17711;BME280;8975;57.718;12.134;2022-12-07T09:20:44;115940.22;;;-142.68;81.08
17711;BME280;8975;57.718;12.134;2022-12-07T09:23:10;115940.22;;;-142.68;80.86
17711;BME280;8975;57.718;12.134;2022-12-07T09:25:35;115940.22;;;-142.68;79.96
17711;BME280;8975;57.718;12.134;2022-12-07T09:28:01;115940.22;;;-142.68;79.93
17711;BME280;8975;57.718;12.134;2022-12-07T09:30:27;115940.22;;;-142.68;81.08
17711;BME280;8975;57.718;12.134;2022-12-07T09:32:54;115940.22;;;-142.68;80.66
17711;BME280;8975;57.718;12.134;2022-12-07T09:35:20;115940.22;;;-142.68;80.70
17711;BME280;8975;57.718;12.134;2022-12-07T09:37:45;115940.22;;;-142.68;80.03
17711;BME280;8975;57.718;12.134;2022-12-07T09:40:12;115940.22;;;-142.68;79.46
17711;BME280;8975;57.718;12.134;2022-12-07T09:42:41;115940.22;;;-142.68;80.01
17711;BME280;8975;57.718;12.134;2022-12-07T09:45:18;115940.22;;;-142.68;79.79
17711;BME280;8975;57.718;12.134;2022-12-07T09:47:45;115940.22;;;-142.68;79.64
17711;BME280;8975;57.718;12.134;2022-12-07T09:50:20;115940.22;;;-142.68;78.41
17711;BME280;8975;57.718;12.134;2022-12-07T09:52:47;115940.22;;;-142.68;78.82
17711;BME280;8975;57.718;12.134;2022-12-07T09:55:24;115940.22;;;-142.68;79.58
17711;BME280;8975;57.718;12.134;2022-12-07T09:57:52;115940.22;;;-142.68;79.78
17711;BME280;8975;57.718;12.134;2022-12-07T10:00:20;115940.22;;;-142.68;79.35
17711;BME280;8975;57.718;12.134;2022-12-07T10:03:05;115940.22;;;-142.68;79.50
17711;BME280;8975;57.718;12.134;2022-12-07T10:05:34;115940.22;;;-142.68;79.92
17711;BME280;8975;57.718;12.134;2022-12-07T10:08:00;115940.22;;;-142.68;80.08
17711;BME280;8975;57.718;12.134;2022-12-07T10:10:35;115940.22;;;-142.68;80.13
17711;BME280;8975;57.718;12.134;2022-12-07T10:15:56;115940.22;;;-142.68;79.72
17711;BME280;8975;57.718;12.134;2022-12-07T10:23:30;115940.22;;;-142.68;79.42
17711;BME280;8975;57.718;12.134;2022-12-07T10:25:55;115940.22;;;-142.68;78.98
17711;BME280;8975;57.718;12.134;2022-12-07T10:28:21;115940.22;;;-142.68;79.21
17711;BME280;8975;57.718;12.134;2022-12-07T10:36:01;115940.22;;;-142.68;78.81
17711;BME280;8975;57.718;12.134;2022-12-07T10:38:48;115940.22;;;-142.68;79.18
17711;BME280;8975;57.718;12.134;2022-12-07T10:41:13;115940.22;;;-142.68;78.17
17711;BME280;8975;57.718;12.134;2022-12-07T10:43:47;115940.22;;;-142.68;78.64
17711;BME280;8975;57.718;12.134;2022-12-07T10:49:18;115940.22;;;-142.68;78.22
17711;BME280;8975;57.718;12.134;2022-12-07T11:00:24;115940.22;;;-142.68;78.32
17711;BME280;8975;57.718;12.134;2022-12-07T11:06:14;115940.22;;;-142.68;79.94
17711;BME280;8975;57.718;12.134;2022-12-07T11:11:18;115940.22;;;-142.68;78.81
17711;BME280;8975;57.718;12.134;2022-12-07T11:22:19;115940.22;;;-142.68;77.31
17711;BME280;8975;57.718;12.134;2022-12-07T11:25:02;115940.22;;;-142.68;78.30
17711;BME280;8975;57.718;12.134;2022-12-07T11:30:18;115940.22;;;-142.68;77.89
17711;BME280;8975;57.718;12.134;2022-12-07T11:33:09;115940.22;;;-142.68;77.93
17711;BME280;8975;57.718;12.134;2022-12-07T11:38:52;115940.22;;;-142.68;78.56
17711;BME280;8975;57.718;12.134;2022-12-07T11:41:23;115940.22;;;-142.68;78.29
17711;BME280;8975;57.718;12.134;2022-12-07T11:46:51;115940.22;;;-142.68;77.72
17711;BME280;8975;57.718;12.134;2022-12-07T11:51:54;115940.22;;;-142.68;77.62
17711;BME280;8975;57.718;12.134;2022-12-07T11:54:35;115940.22;;;-142.68;77.95
17711;BME280;8975;57.718;12.134;2022-12-07T11:57:12;115940.22;;;-142.68;78.91
17711;BME280;8975;57.718;12.134;2022-12-07T11:59:56;115940.22;;;-142.68;78.65
17711;BME280;8975;57.718;12.134;2022-12-07T12:02:32;115940.22;;;-142.68;78.34
17711;BME280;8975;57.718;12.134;2022-12-07T12:04:59;115940.22;;;-142.68;77.86
17711;BME280;8975;57.718;12.134;2022-12-07T12:07:27;115940.22;;;-142.68;77.81
17711;BME280;8975;57.718;12.134;2022-12-07T12:10:05;115940.22;;;-142.68;77.58
17711;BME280;8975;57.718;12.134;2022-12-07T12:15:42;115940.22;;;-142.68;77.61
17711;BME280;8975;57.718;12.134;2022-12-07T12:20:53;115940.22;;;-142.68;77.25
17711;BME280;8975;57.718;12.134;2022-12-07T12:23:43;115940.22;;;-142.68;77.55
17711;BME280;8975;57.718;12.134;2022-12-07T12:26:22;115940.22;;;-142.68;77.36
17711;BME280;8975;57.718;12.134;2022-12-07T12:28:55;115940.22;;;-142.68;76.06
17711;BME280;8975;57.718;12.134;2022-12-07T12:33:54;115940.22;;;-142.68;77.19
17711;BME280;8975;57.718;12.134;2022-12-07T12:46:47;115940.22;;;-142.68;77.86
17711;BME280;8975;57.718;12.134;2022-12-07T12:49:40;115940.22;;;-142.68;76.78
17711;BME280;8975;57.718;12.134;2022-12-07T12:54:58;115940.22;;;-142.68;75.58
17711;BME280;8975;57.718;12.134;2022-12-07T12:57:27;115940.22;;;-142.68;76.17
17711;BME280;8975;57.718;12.134;2022-12-07T13:04:53;115940.22;;;-142.68;75.75
17711;BME280;8975;57.718;12.134;2022-12-07T13:15:46;115940.22;;;-142.68;77.50
17711;BME280;8975;57.718;12.134;2022-12-07T13:28:49;115940.22;;;-142.68;75.73
17711;BME280;8975;57.718;12.134;2022-12-07T13:34:03;115940.22;;;-142.68;75.22
17711;BME280;8975;57.718;12.134;2022-12-07T13:36:39;115940.22;;;-142.68;75.03
17711;BME280;8975;57.718;12.134;2022-12-07T13:39:33;115940.22;;;-142.68;76.31
17711;BME280;8975;57.718;12.134;2022-12-07T13:42:11;115940.22;;;-142.68;76.95
17711;BME280;8975;57.718;12.134;2022-12-07T13:44:40;115940.22;;;-142.68;77.00
17711;BME280;8975;57.718;12.134;2022-12-07T13:47:22;115940.22;;;-142.68;76.76
17711;BME280;8975;57.718;12.134;2022-12-07T13:49:55;115940.22;;;-142.68;75.97
17711;BME280;8975;57.718;12.134;2022-12-07T13:52:28;115940.22;;;-142.68;75.60
17711;BME280;8975;57.718;12.134;2022-12-07T13:55:08;115940.22;;;-142.68;75.68
17711;BME280;8975;57.718;12.134;2022-12-07T13:57:38;115940.22;;;-142.68;76.19
17711;BME280;8975;57.718;12.134;2022-12-07T14:00:13;115940.22;;;-142.68;75.93
17711;BME280;8975;57.718;12.134;2022-12-07T14:03:04;115940.22;;;-142.68;76.18
17711;BME280;8975;57.718;12.134;2022-12-07T14:05:33;115940.22;;;-142.68;76.52
17711;BME280;8975;57.718;12.134;2022-12-07T14:08:04;115940.22;;;-142.68;76.17
17711;BME280;8975;57.718;12.134;2022-12-07T14:12:57;115940.22;;;-142.68;75.33
17711;BME280;8975;57.718;12.134;2022-12-07T14:15:31;115940.22;;;-142.68;76.68
17711;BME280;8975;57.718;12.134;2022-12-07T14:17:58;115940.22;;;-142.68;75.47
17711;BME280;8975;57.718;12.134;2022-12-07T14:23:02;115940.22;;;-142.68;74.82
17711;BME280;8975;57.718;12.134;2022-12-07T14:25:51;115940.22;;;-142.68;74.39
17711;BME280;8975;57.718;12.134;2022-12-07T14:28:33;115940.22;;;-142.68;74.49
17711;BME280;8975;57.718;12.134;2022-12-07T14:30:59;115940.22;;;-142.68;74.42
17711;BME280;8975;57.718;12.134;2022-12-07T14:33:26;115940.22;;;-142.68;74.31
17711;BME280;8975;57.718;12.134;2022-12-07T14:35:52;115940.22;;;-142.68;74.39
17711;BME280;8975;57.718;12.134;2022-12-07T14:38:24;115940.22;;;-142.68;75.03
17711;BME280;8975;57.718;12.134;2022-12-07T14:40:53;115940.22;;;-142.68;74.42
17711;BME280;8975;57.718;12.134;2022-12-07T14:43:40;115940.22;;;-142.68;73.54
17711;BME280;8975;57.718;12.134;2022-12-07T14:46:05;115940.22;;;-142.68;73.51
17711;BME280;8975;57.718;12.134;2022-12-07T14:48:30;115940.22;;;-142.68;73.80
17711;BME280;8975;57.718;12.134;2022-12-07T14:50:56;115940.22;;;-142.68;73.53
17711;BME280;8975;57.718;12.134;2022-12-07T14:53:27;115940.22;;;-142.68;73.67
17711;BME280;8975;57.718;12.134;2022-12-07T14:55:54;115940.22;;;-142.68;74.07
17711;BME280;8975;57.718;12.134;2022-12-07T14:58:20;115940.22;;;-142.68;73.51
17711;BME280;8975;57.718;12.134;2022-12-07T15:00:46;115940.22;;;-142.68;73.58
17711;BME280;8975;57.718;12.134;2022-12-07T15:03:12;115940.22;;;-142.68;73.03
17711;BME280;8975;57.718;12.134;2022-12-07T15:05:38;115940.22;;;-142.68;73.65
17711;BME280;8975;57.718;12.134;2022-12-07T15:08:04;115940.22;;;-142.68;73.41